Time;durP1;ratioP1;P1;durP2;ratioP2;P2;SDS_P1;SDS_P2;PMS_P1;PMS_P2;Temp;Humidity;BMP_temperature;BMP_pressure;BME280_temperature;BME280_humidity;BME280_pressure;Samples;Min_cycle;Max_cycle;Signal;HPM_P1;HPM_P2
2024/01/30 00:01:25;;;;;;;12.35;6.35;;;9.00;99.90;;;;;;5135122;28;20039;-70
2024/01/30 00:03:51;;;;;;;13.07;6.82;;;9.00;99.90;;;;;;5135081;28;20080;-69
2024/01/30 00:06:23;;;;;;;12.05;7.18;;;9.00;99.90;;;;;;5135094;28;20028;-69
2024/01/30 00:08:49;;;;;;;11.23;6.10;;;8.90;99.90;;;;;;5134989;28;20382;-69
2024/01/30 00:11:15;;;;;;;13.65;6.95;;;8.90;99.90;;;;;;5134833;28;20079;-69
2024/01/30 00:13:41;;;;;;;12.07;6.65;;;8.80;99.90;;;;;;5134885;28;20019;-70
2024/01/30 00:16:08;;;;;;;12.88;7.07;;;8.80;99.90;;;;;;5134845;28;20011;-70
2024/01/30 00:18:34;;;;;;;14.48;7.05;;;8.80;99.90;;;;;;5134630;28;20480;-69
2024/01/30 00:20:59;;;;;;;13.05;6.68;;;8.70;99.90;;;;;;5134563;28;20058;-69
2024/01/30 00:23:25;;;;;;;14.07;7.50;;;8.70;99.90;;;;;;5134661;28;20052;-70
2024/01/30 00:25:51;;;;;;;10.77;6.38;;;8.60;99.90;;;;;;5134676;28;20028;-69
2024/01/30 00:28:16;;;;;;;12.07;6.85;;;8.50;99.90;;;;;;5134570;28;20055;-69
2024/01/30 00:30:42;;;;;;;13.93;6.82;;;8.50;99.90;;;;;;5134430;28;20124;-70
2024/01/30 00:33:09;;;;;;;11.65;6.63;;;8.30;99.90;;;;;;5134375;28;20613;-70
2024/01/30 00:35:34;;;;;;;12.35;6.57;;;8.30;99.90;;;;;;5134272;28;20027;-70
2024/01/30 00:38:00;;;;;;;13.13;6.93;;;8.30;99.90;;;;;;5134342;28;20028;-70
2024/01/30 00:40:26;;;;;;;12.00;6.50;;;8.20;99.90;;;;;;5134352;28;20031;-70
2024/01/30 00:42:52;;;;;;;9.68;6.18;;;8.20;99.90;;;;;;5134230;28;20032;-69
2024/01/30 00:45:17;;;;;;;13.90;7.22;;;8.10;99.90;;;;;;5134223;28;20028;-70
2024/01/30 00:47:43;;;;;;;13.32;7.75;;;8.20;99.90;;;;;;5134141;28;20039;-70
2024/01/30 00:50:09;;;;;;;14.25;7.32;;;8.20;99.90;;;;;;5133766;28;20084;-69
2024/01/30 00:52:35;;;;;;;13.23;7.22;;;8.20;99.90;;;;;;5134132;28;20022;-70
2024/01/30 00:55:02;;;;;;;13.48;7.43;;;8.20;99.90;;;;;;5134112;28;20028;-70
2024/01/30 00:57:28;;;;;;;12.68;7.10;;;8.20;99.90;;;;;;5133929;28;20018;-70
2024/01/30 00:59:53;;;;;;;13.32;7.40;;;8.20;99.90;;;;;;5133810;28;20020;-70
2024/01/30 01:02:19;;;;;;;15.35;7.68;;;8.20;99.90;;;;;;5133978;28;20035;-70
2024/01/30 01:04:45;;;;;;;16.05;7.55;;;8.20;99.90;;;;;;5133836;28;20032;-69
2024/01/30 01:07:11;;;;;;;14.65;7.20;;;8.20;99.90;;;;;;5133899;28;20036;-69
2024/01/30 01:09:37;;;;;;;17.48;7.40;;;8.20;99.90;;;;;;5133900;28;20023;-69
2024/01/30 01:12:03;;;;;;;13.13;7.18;;;8.20;99.90;;;;;;5133761;28;20023;-70
2024/01/30 01:14:29;;;;;;;12.65;6.97;;;8.20;99.90;;;;;;5133615;28;20027;-70
2024/01/30 01:16:55;;;;;;;12.40;7.18;;;8.20;99.90;;;;;;5133662;28;20015;-69
2024/01/30 01:19:21;;;;;;;12.80;7.75;;;8.20;99.90;;;;;;5133460;28;20397;-69
2024/01/30 01:21:46;;;;;;;16.27;7.88;;;8.20;99.90;;;;;;5133502;28;20016;-69
2024/01/30 01:24:12;;;;;;;15.07;7.68;;;8.20;99.90;;;;;;5133600;28;20501;-70
2024/01/30 01:26:38;;;;;;;14.43;7.35;;;8.30;99.90;;;;;;5133590;28;20039;-70
2024/01/30 01:29:09;;;;;;;12.57;7.57;;;8.30;99.90;;;;;;5133398;28;20089;-70
2024/01/30 01:31:39;;;;;;;13.70;7.78;;;8.30;99.90;;;;;;5133309;28;20068;-70
2024/01/30 01:34:06;;;;;;;14.25;7.70;;;8.30;99.90;;;;;;5133383;28;20079;-70
2024/01/30 01:36:31;;;;;;;13.50;7.38;;;8.30;99.90;;;;;;5133455;28;20027;-70
2024/01/30 01:38:57;;;;;;;14.10;7.57;;;8.30;99.90;;;;;;5133315;28;20450;-70
2024/01/30 01:41:22;;;;;;;15.27;7.63;;;8.40;99.90;;;;;;5133418;28;20053;-70
2024/01/30 01:43:48;;;;;;;11.57;6.75;;;8.30;99.90;;;;;;5133317;28;20036;-70
2024/01/30 01:46:14;;;;;;;14.50;7.32;;;8.40;99.90;;;;;;5133211;28;20115;-69
2024/01/30 01:48:40;;;;;;;10.43;6.40;;;8.40;99.90;;;;;;5132938;28;20028;-69
2024/01/30 01:51:06;;;;;;;15.05;7.63;;;8.40;99.90;;;;;;5133060;28;20028;-70
2024/01/30 01:53:32;;;;;;;15.23;7.45;;;8.40;99.90;;;;;;5133120;28;20020;-70
2024/01/30 01:55:58;;;;;;;14.65;7.38;;;8.40;99.90;;;;;;5133087;28;20024;-70
2024/01/30 01:58:28;;;;;;;18.13;7.53;;;8.40;99.90;;;;;;5132996;28;20053;-69
2024/01/30 02:00:55;;;;;;;13.50;7.10;;;8.40;99.90;;;;;;5133055;28;20028;-70
2024/01/30 02:03:21;;;;;;;16.55;8.30;;;8.40;99.90;;;;;;5132975;28;20043;-70
2024/01/30 02:05:47;;;;;;;16.20;7.53;;;8.40;99.90;;;;;;5133077;28;20030;-69
2024/01/30 02:08:12;;;;;;;14.40;7.72;;;8.50;99.90;;;;;;5132957;28;20035;-69
2024/01/30 02:10:38;;;;;;;12.50;7.13;;;8.50;99.90;;;;;;5133421;28;20032;-70
2024/01/30 02:13:04;;;;;;;14.00;6.70;;;8.50;99.90;;;;;;5137223;28;20055;-70
2024/01/30 02:15:30;;;;;;;13.48;7.38;;;8.50;99.90;;;;;;5137149;28;20016;-69
2024/01/30 02:17:55;;;;;;;14.63;7.47;;;8.50;99.90;;;;;;5137150;28;20032;-70
2024/01/30 02:20:23;;;;;;;17.40;7.63;;;8.50;99.90;;;;;;5136812;28;20045;-70
2024/01/30 02:22:49;;;;;;;15.60;7.60;;;8.60;99.90;;;;;;5137035;28;20026;-70
2024/01/30 02:25:14;;;;;;;14.35;6.88;;;8.60;99.90;;;;;;5137022;28;20051;-70
2024/01/30 02:27:40;;;;;;;13.60;6.72;;;8.60;99.90;;;;;;5136879;28;20049;-69
2024/01/30 02:30:06;;;;;;;12.85;6.68;;;8.60;99.90;;;;;;5136794;28;20035;-69
2024/01/30 02:32:32;;;;;;;15.48;7.50;;;8.60;99.90;;;;;;5136360;28;20112;-69
2024/01/30 02:34:57;;;;;;;14.13;7.18;;;8.70;99.90;;;;;;5136905;28;20024;-70
2024/01/30 02:37:23;;;;;;;13.25;7.32;;;8.70;99.90;;;;;;5136836;28;20101;-70
2024/01/30 02:39:49;;;;;;;12.55;7.00;;;8.60;99.90;;;;;;5136803;28;20012;-70
2024/01/30 02:42:14;;;;;;;13.38;6.57;;;8.60;99.90;;;;;;5136702;28;20451;-69
2024/01/30 02:44:40;;;;;;;13.10;7.40;;;8.60;99.90;;;;;;5136675;28;20031;-69
2024/01/30 02:47:05;;;;;;;13.65;6.63;;;8.60;99.90;;;;;;5136615;28;20043;-69
2024/01/30 02:49:31;;;;;;;12.20;6.78;;;8.60;99.90;;;;;;5136248;28;20039;-70
2024/01/30 02:51:57;;;;;;;11.07;6.35;;;8.60;99.90;;;;;;5136516;28;20537;-70
2024/01/30 02:54:22;;;;;;;13.00;6.53;;;8.50;99.90;;;;;;5135462;28;20024;-69
2024/01/30 02:56:48;;;;;;;14.80;7.13;;;8.50;99.90;;;;;;5136409;28;20038;-70
2024/01/30 02:59:14;;;;;;;11.50;6.45;;;8.50;99.90;;;;;;5136299;28;20024;-70
2024/01/30 03:01:46;;;;;;;13.55;7.57;;;8.50;99.90;;;;;;5136294;28;20127;-70
2024/01/30 03:04:12;;;;;;;12.75;6.75;;;8.50;99.90;;;;;;5136296;28;20047;-70
2024/01/30 03:06:38;;;;;;;13.43;6.30;;;8.50;99.90;;;;;;5136269;28;20044;-70
2024/01/30 03:09:04;;;;;;;13.13;6.95;;;8.50;99.90;;;;;;5136198;28;20046;-69
2024/01/30 03:11:30;;;;;;;15.02;6.70;;;8.50;99.90;;;;;;5136027;28;20019;-69
2024/01/30 03:13:56;;;;;;;11.43;6.88;;;8.50;99.90;;;;;;5135938;28;20024;-70
2024/01/30 03:16:21;;;;;;;13.02;6.72;;;8.50;99.90;;;;;;5136048;28;20073;-69
2024/01/30 03:18:48;;;;;;;12.10;6.53;;;8.50;99.90;;;;;;5135699;28;20083;-69
2024/01/30 03:21:14;;;;;;;14.20;7.00;;;8.60;99.90;;;;;;5135957;28;20016;-70
2024/01/30 03:23:39;;;;;;;11.32;6.43;;;8.60;99.90;;;;;;5134947;28;20026;-70
2024/01/30 03:26:06;;;;;;;13.77;6.88;;;8.70;99.90;;;;;;5134893;28;20468;-70
2024/01/30 03:28:32;;;;;;;12.52;6.90;;;8.70;99.90;;;;;;5135675;28;20091;-70
2024/01/30 03:30:57;;;;;;;13.70;6.60;;;8.70;99.90;;;;;;5135763;28;20028;-70
2024/01/30 03:33:23;;;;;;;13.38;6.88;;;8.80;99.90;;;;;;5135778;28;20039;-70
2024/01/30 03:35:48;;;;;;;16.75;7.00;;;8.80;99.90;;;;;;5135834;28;20049;-70
2024/01/30 03:38:14;;;;;;;12.20;6.13;;;8.80;99.90;;;;;;5135695;28;20062;-70
2024/01/30 03:40:40;;;;;;;12.05;6.55;;;8.80;99.90;;;;;;5135629;28;20083;-70
2024/01/30 03:43:05;;;;;;;14.95;7.35;;;8.80;99.90;;;;;;5135502;28;20028;-70
2024/01/30 03:45:31;;;;;;;12.27;6.50;;;8.80;99.90;;;;;;5135486;28;20028;-70
2024/01/30 03:47:56;;;;;;;11.30;6.38;;;8.80;99.90;;;;;;5135388;28;20042;-69
2024/01/30 03:50:22;;;;;;;10.63;6.05;;;8.80;99.90;;;;;;5135148;28;20056;-70
2024/01/30 03:52:48;;;;;;;14.15;6.78;;;8.80;99.90;;;;;;5135359;28;20031;-69
2024/01/30 03:55:14;;;;;;;12.18;6.80;;;8.80;99.90;;;;;;5134465;28;20027;-70
2024/01/30 03:57:39;;;;;;;10.75;6.22;;;8.80;99.90;;;;;;5135072;28;20020;-70
2024/01/30 04:00:05;;;;;;;11.98;6.78;;;8.80;99.90;;;;;;5135209;28;20015;-70
2024/01/30 04:02:31;;;;;;;12.27;6.43;;;8.80;99.90;;;;;;5135137;28;20115;-70
2024/01/30 04:04:56;;;;;;;12.90;6.22;;;8.80;99.90;;;;;;5135124;28;20028;-70
2024/01/30 04:07:22;;;;;;;13.73;6.65;;;8.90;99.90;;;;;;5135014;28;20031;-70
2024/01/30 04:09:48;;;;;;;14.38;6.75;;;8.90;99.90;;;;;;5135038;28;20024;-70
2024/01/30 04:12:13;;;;;;;12.32;6.50;;;8.90;99.90;;;;;;5134769;28;20051;-69
2024/01/30 04:14:39;;;;;;;11.85;6.45;;;8.90;99.90;;;;;;5134915;28;20031;-69
2024/01/30 04:17:05;;;;;;;13.25;6.57;;;8.90;99.90;;;;;;5134834;28;20019;-69
2024/01/30 04:19:30;;;;;;;11.80;6.28;;;8.90;99.90;;;;;;5134458;28;20039;-69
2024/01/30 04:21:56;;;;;;;12.57;6.43;;;9.00;99.90;;;;;;5134730;28;20031;-69
2024/01/30 04:24:21;;;;;;;10.85;6.40;;;8.90;99.90;;;;;;5134672;28;20081;-69
2024/01/30 04:26:47;;;;;;;11.07;6.07;;;9.00;99.90;;;;;;5134647;28;20055;-69
2024/01/30 04:29:12;;;;;;;11.18;5.97;;;9.00;99.90;;;;;;5134590;28;20114;-69
2024/01/30 04:31:38;;;;;;;13.05;5.88;;;9.10;99.90;;;;;;5134362;28;20119;-69
2024/01/30 04:34:04;;;;;;;13.13;6.38;;;9.10;99.90;;;;;;5133026;28;20032;-69
2024/01/30 04:36:29;;;;;;;10.50;5.68;;;9.10;99.90;;;;;;5134507;28;20028;-70
2024/01/30 04:38:55;;;;;;;9.40;5.88;;;9.10;99.90;;;;;;5134478;28;20023;-70
2024/01/30 04:41:20;;;;;;;15.20;6.55;;;9.20;99.90;;;;;;5133459;28;20032;-70
2024/01/30 04:43:46;;;;;;;13.93;6.78;;;9.20;99.90;;;;;;5134331;28;20059;-69
2024/01/30 04:46:12;;;;;;;10.07;5.43;;;9.20;99.90;;;;;;5134300;28;20023;-70
2024/01/30 04:48:38;;;;;;;11.45;5.90;;;9.20;99.90;;;;;;5133973;28;20488;-70
2024/01/30 04:51:04;;;;;;;12.48;6.07;;;9.20;99.90;;;;;;5134151;28;20020;-68
2024/01/30 04:53:31;;;;;;;11.00;6.68;;;9.20;99.90;;;;;;5134102;28;20034;-69
2024/01/30 04:55:56;;;;;;;11.18;6.63;;;9.30;99.90;;;;;;5134156;28;20038;-69
2024/01/30 04:58:22;;;;;;;13.50;5.88;;;9.30;99.90;;;;;;5133984;28;20036;-69
2024/01/30 05:00:51;;;;;;;15.15;6.07;;;9.30;99.90;;;;;;5134091;28;20030;-69
2024/01/30 05:03:17;;;;;;;10.95;5.25;;;9.40;99.90;;;;;;5134051;28;20136;-69
2024/01/30 05:05:43;;;;;;;12.02;5.95;;;9.40;99.90;;;;;;5133930;28;20023;-69
2024/01/30 05:08:08;;;;;;;11.75;5.30;;;9.40;99.90;;;;;;5133895;28;20047;-69
2024/01/30 05:10:34;;;;;;;12.07;6.18;;;9.50;99.90;;;;;;5133661;28;20035;-69
2024/01/30 05:13:00;;;;;;;12.45;6.55;;;9.50;99.90;;;;;;5133791;28;20020;-69
2024/01/30 05:15:25;;;;;;;10.52;5.93;;;9.60;99.90;;;;;;5133747;28;20054;-69
2024/01/30 05:17:51;;;;;;;11.77;5.90;;;9.50;99.90;;;;;;5133696;28;20041;-68
2024/01/30 05:20:17;;;;;;;11.43;5.55;;;9.60;99.90;;;;;;5133502;28;20027;-68
2024/01/30 05:22:44;;;;;;;11.48;5.63;;;9.60;99.90;;;;;;5132705;28;20194;-69
2024/01/30 05:25:11;;;;;;;11.45;5.97;;;9.60;99.90;;;;;;5133487;28;20075;-69
2024/01/30 05:27:37;;;;;;;11.68;5.53;;;9.60;99.90;;;;;;5133489;28;20044;-69
2024/01/30 05:30:04;;;;;;;11.95;5.60;;;9.60;99.90;;;;;;5133548;28;20027;-69
2024/01/30 05:32:30;;;;;;;8.98;4.97;;;9.60;99.90;;;;;;5133308;28;20048;-69
2024/01/30 05:34:55;;;;;;;12.55;5.82;;;9.60;99.90;;;;;;5133595;28;20098;-69
2024/01/30 05:37:21;;;;;;;10.50;5.50;;;9.70;99.90;;;;;;5133372;28;20024;-69
2024/01/30 05:39:46;;;;;;;10.80;5.88;;;9.70;99.90;;;;;;5133296;28;20039;-69
2024/01/30 05:42:12;;;;;;;9.63;5.70;;;9.80;99.90;;;;;;5133237;28;20072;-69
2024/01/30 05:44:38;;;;;;;11.75;5.72;;;9.80;99.90;;;;;;5133159;28;20020;-69
2024/01/30 05:47:04;;;;;;;10.38;5.82;;;9.80;99.90;;;;;;5132631;28;20042;-69
2024/01/30 05:49:29;;;;;;;9.55;5.47;;;9.80;99.90;;;;;;5133013;28;20031;-69
2024/01/30 05:51:55;;;;;;;8.45;4.70;;;9.80;99.90;;;;;;5133105;28;20042;-69
2024/01/30 05:54:21;;;;;;;9.68;5.15;;;9.80;99.90;;;;;;5133048;28;20026;-69
2024/01/30 05:56:46;;;;;;;11.07;5.45;;;9.80;99.90;;;;;;5133133;28;20035;-68
2024/01/30 05:59:12;;;;;;;9.88;5.25;;;9.80;99.90;;;;;;5133068;28;20383;-68
2024/01/30 06:01:38;;;;;;;8.77;5.32;;;9.90;99.90;;;;;;5133100;28;20020;-69
2024/01/30 06:04:03;;;;;;;8.80;5.47;;;9.90;99.90;;;;;;5133054;28;20028;-69
2024/01/30 06:06:29;;;;;;;9.18;4.82;;;9.90;99.90;;;;;;5132968;28;20023;-69
2024/01/30 06:08:56;;;;;;;11.43;5.35;;;9.90;99.90;;;;;;5132874;28;20673;-69
2024/01/30 06:11:21;;;;;;;8.85;5.22;;;9.90;99.90;;;;;;5132877;28;20042;-69
2024/01/30 06:13:47;;;;;;;10.93;5.13;;;9.90;99.90;;;;;;5133043;28;20024;-69
2024/01/30 06:16:13;;;;;;;8.85;5.03;;;9.90;99.90;;;;;;5133023;28;20055;-69
2024/01/30 06:18:38;;;;;;;12.88;5.72;;;10.00;99.90;;;;;;5132720;28;20020;-68
2024/01/30 06:21:05;;;;;;;8.68;4.97;;;10.00;99.90;;;;;;5118748;28;20024;-69
2024/01/30 06:23:30;;;;;;;11.38;6.10;;;10.00;99.90;;;;;;5112267;28;20039;-69
2024/01/30 06:25:56;;;;;;;11.40;5.22;;;10.00;99.90;;;;;;5112351;28;20024;-69
2024/01/30 06:28:22;;;;;;;13.65;5.40;;;10.00;99.90;;;;;;5111204;28;20062;-69
2024/01/30 06:30:47;;;;;;;11.20;5.47;;;10.00;99.90;;;;;;5111421;28;20032;-66
2024/01/30 06:33:13;;;;;;;11.07;5.55;;;10.00;99.90;;;;;;5112236;28;20036;-65
2024/01/30 06:35:40;;;;;;;9.25;5.43;;;10.00;99.90;;;;;;5112364;28;20058;-64
2024/01/30 06:38:06;;;;;;;9.00;5.13;;;10.00;99.90;;;;;;5112263;28;20023;-66
2024/01/30 06:40:31;;;;;;;8.75;5.30;;;10.00;99.90;;;;;;5112281;28;20032;-66
2024/01/30 06:42:57;;;;;;;11.95;5.38;;;10.00;99.90;;;;;;5112171;28;20028;-66
2024/01/30 06:45:23;;;;;;;10.05;5.20;;;10.00;99.90;;;;;;5112313;28;20489;-67
2024/01/30 06:47:48;;;;;;;11.45;5.50;;;10.00;99.90;;;;;;5112329;28;20036;-65
2024/01/30 06:50:14;;;;;;;9.77;5.97;;;10.00;99.90;;;;;;5110982;28;20024;-66
2024/01/30 06:52:40;;;;;;;14.18;5.57;;;10.00;99.90;;;;;;5112184;28;20031;-65
2024/01/30 06:55:05;;;;;;;9.57;5.18;;;10.00;99.90;;;;;;5112199;28;20028;-66
2024/01/30 06:57:31;;;;;;;8.00;5.38;;;10.00;99.90;;;;;;5113905;28;20043;-65
2024/01/30 06:59:57;;;;;;;9.15;5.25;;;10.00;99.90;;;;;;5115936;28;20030;-65
2024/01/30 07:02:22;;;;;;;10.95;5.72;;;10.00;99.90;;;;;;5114907;28;20040;-65
2024/01/30 07:04:49;;;;;;;9.60;5.65;;;9.90;99.90;;;;;;5115894;28;20031;-64
2024/01/30 07:07:14;;;;;;;12.25;5.78;;;9.90;99.90;;;;;;5115502;28;20079;-65
2024/01/30 07:09:41;;;;;;;9.07;5.68;;;9.90;99.90;;;;;;5114752;28;20035;-66
2024/01/30 07:12:07;;;;;;;13.48;6.18;;;9.90;99.90;;;;;;5114050;28;20031;-67
2024/01/30 07:14:33;;;;;;;10.60;5.53;;;9.90;99.90;;;;;;5115448;28;20054;-67
2024/01/30 07:16:58;;;;;;;14.30;5.63;;;9.90;99.90;;;;;;5097591;28;20047;-67
2024/01/30 07:19:24;;;;;;;12.13;5.60;;;9.80;99.90;;;;;;5114373;28;20025;-65
2024/01/30 07:21:50;;;;;;;11.55;5.40;;;9.80;99.90;;;;;;5114708;28;20039;-66
2024/01/30 07:24:15;;;;;;;13.15;6.03;;;9.80;99.90;;;;;;5115298;28;20034;-66
2024/01/30 07:26:41;;;;;;;10.68;5.15;;;9.80;99.90;;;;;;5115505;28;20436;-65
2024/01/30 07:29:06;;;;;;;10.38;5.55;;;9.80;99.90;;;;;;5115322;28;20028;-65
2024/01/30 07:31:32;;;;;;;8.93;4.97;;;9.70;99.90;;;;;;5115140;28;20055;-65
2024/01/30 07:33:58;;;;;;;9.85;5.47;;;9.80;99.90;;;;;;5115287;28;20089;-64
2024/01/30 07:36:23;;;;;;;11.15;5.82;;;9.80;99.90;;;;;;5115226;28;20024;-65
2024/01/30 07:38:49;;;;;;;10.77;5.80;;;9.80;99.90;;;;;;5115203;28;20035;-65
2024/01/30 07:41:14;;;;;;;11.82;6.18;;;9.80;99.90;;;;;;5115205;28;20065;-64
2024/01/30 07:43:40;;;;;;;9.50;5.05;;;9.80;99.90;;;;;;5115137;28;20035;-65
2024/01/30 07:46:06;;;;;;;11.90;5.82;;;9.80;99.90;;;;;;5115129;28;20035;-67
2024/01/30 07:48:33;;;;;;;12.23;5.90;;;9.80;99.90;;;;;;5114839;28;20034;-65
2024/01/30 07:50:59;;;;;;;13.32;6.10;;;9.80;99.90;;;;;;5114740;28;20378;-65
2024/01/30 07:53:25;;;;;;;11.10;5.70;;;9.80;99.90;;;;;;5114840;28;20020;-65
2024/01/30 07:55:51;;;;;;;11.10;5.30;;;9.90;99.90;;;;;;5114897;28;20016;-65
2024/01/30 07:58:16;;;;;;;10.95;5.60;;;9.90;99.90;;;;;;5114839;28;20031;-65
2024/01/30 08:00:42;;;;;;;11.52;6.03;;;9.90;99.90;;;;;;5114828;28;20115;-65
2024/01/30 08:03:07;;;;;;;10.70;5.53;;;9.90;99.90;;;;;;5114712;28;20031;-65
2024/01/30 08:05:33;;;;;;;10.07;5.38;;;9.90;99.90;;;;;;5114575;28;20058;-65
2024/01/30 08:07:59;;;;;;;15.32;6.47;;;9.90;99.90;;;;;;5113326;28;20128;-66
2024/01/30 08:10:24;;;;;;;10.65;5.82;;;9.90;99.90;;;;;;5114001;28;20386;-65
2024/01/30 08:12:50;;;;;;;12.13;5.95;;;10.00;99.90;;;;;;5114585;28;20028;-66
2024/01/30 08:15:16;;;;;;;12.20;5.80;;;10.00;99.90;;;;;;5114587;28;20039;-65
2024/01/30 08:17:41;;;;;;;11.25;5.72;;;10.00;99.90;;;;;;5114411;28;20035;-65
2024/01/30 08:20:08;;;;;;;12.15;5.57;;;10.10;99.90;;;;;;5113894;28;20028;-66
2024/01/30 08:22:34;;;;;;;11.70;5.75;;;10.10;99.90;;;;;;5114295;28;20077;-65
2024/01/30 08:24:59;;;;;;;9.38;5.60;;;10.20;99.90;;;;;;5114270;28;20052;-65
2024/01/30 08:27:25;;;;;;;15.05;6.75;;;10.20;99.90;;;;;;5114137;28;20021;-66
2024/01/30 08:29:50;;;;;;;11.15;5.95;;;10.30;99.90;;;;;;5114241;28;20042;-66
2024/01/30 08:32:16;;;;;;;9.30;5.55;;;10.30;99.90;;;;;;5112085;28;20052;-65
2024/01/30 08:34:42;;;;;;;12.05;5.32;;;10.30;99.90;;;;;;5113768;28;20035;-64
2024/01/30 08:37:07;;;;;;;11.70;5.53;;;10.40;99.90;;;;;;5118499;28;20028;-64
2024/01/30 08:39:33;;;;;;;10.93;6.03;;;10.40;99.90;;;;;;5133113;28;20050;-64
2024/01/30 08:41:59;;;;;;;9.20;5.53;;;10.40;99.90;;;;;;5133073;28;20051;-64
2024/01/30 08:44:25;;;;;;;12.55;5.95;;;10.50;99.90;;;;;;5134105;28;20032;-65
2024/01/30 08:46:50;;;;;;;8.70;5.13;;;10.50;99.90;;;;;;5133539;28;20028;-66
2024/01/30 08:49:20;;;;;;;12.15;5.63;;;10.50;99.90;;;;;;5133702;28;20043;-65
2024/01/30 08:51:46;;;;;;;8.13;4.78;;;10.50;99.90;;;;;;5133893;28;20044;-65
2024/01/30 08:54:11;;;;;;;12.45;5.65;;;10.60;99.90;;;;;;5134086;28;20046;-65
2024/01/30 08:56:37;;;;;;;10.30;5.22;;;10.60;99.90;;;;;;5133999;28;20031;-65
2024/01/30 08:59:02;;;;;;;8.85;5.40;;;10.60;99.90;;;;;;5133982;28;20031;-65
2024/01/30 09:01:28;;;;;;;9.90;5.10;;;10.60;99.90;;;;;;5133893;28;20057;-65
2024/01/30 09:03:53;;;;;;;9.57;5.05;;;10.70;99.90;;;;;;5133679;28;20390;-66
2024/01/30 09:06:19;;;;;;;9.57;5.10;;;10.70;99.90;;;;;;5133839;28;20027;-65
2024/01/30 09:08:45;;;;;;;10.43;5.32;;;10.70;99.90;;;;;;5133228;28;20031;-65
2024/01/30 09:11:12;;;;;;;9.48;5.57;;;10.80;99.90;;;;;;5133565;28;20035;-65
2024/01/30 09:13:38;;;;;;;10.35;5.50;;;10.80;99.90;;;;;;5133534;28;20027;-66
2024/01/30 09:16:05;;;;;;;12.63;5.72;;;10.80;99.90;;;;;;5133766;28;20020;-66
2024/01/30 09:18:30;;;;;;;11.40;5.32;;;10.80;99.90;;;;;;5133334;28;20106;-66
2024/01/30 09:20:56;;;;;;;11.15;6.00;;;10.90;99.90;;;;;;5133438;28;20042;-65
2024/01/30 09:23:22;;;;;;;10.10;6.00;;;10.90;99.90;;;;;;5132980;28;20027;-66
2024/01/30 09:25:47;;;;;;;13.10;5.50;;;10.90;99.90;;;;;;5133251;28;20047;-64
2024/01/30 09:28:13;;;;;;;13.63;5.97;;;11.00;99.90;;;;;;5133213;28;20051;-65
2024/01/30 09:30:38;;;;;;;10.35;5.68;;;11.00;99.90;;;;;;5133350;28;20039;-66
2024/01/30 09:33:05;;;;;;;11.38;5.63;;;11.00;99.90;;;;;;5133190;28;20047;-65
2024/01/30 09:35:31;;;;;;;12.10;6.00;;;11.00;99.90;;;;;;5133360;28;20034;-65
2024/01/30 09:37:57;;;;;;;10.75;5.60;;;11.00;99.90;;;;;;5133220;28;20016;-65
2024/01/30 09:40:23;;;;;;;9.20;5.22;;;11.10;99.90;;;;;;5133144;28;20027;-65
2024/01/30 09:42:50;;;;;;;13.25;5.68;;;11.10;99.90;;;;;;5133319;28;20027;-65
2024/01/30 09:45:18;;;;;;;14.23;6.20;;;11.10;99.90;;;;;;5133277;28;20424;-66
2024/01/30 09:47:45;;;;;;;11.38;5.80;;;11.20;99.90;;;;;;5132999;28;20019;-65
2024/01/30 09:50:12;;;;;;;11.40;6.20;;;11.20;99.90;;;;;;5132344;28;20068;-65
2024/01/30 09:52:39;;;;;;;10.40;5.57;;;11.20;99.90;;;;;;5132691;28;20027;-65
2024/01/30 09:55:06;;;;;;;10.48;5.55;;;11.20;99.90;;;;;;5132868;28;20035;-65
2024/01/30 09:57:31;;;;;;;12.55;5.78;;;11.20;99.90;;;;;;5132787;28;20024;-65
2024/01/30 09:59:57;;;;;;;11.55;6.20;;;11.30;99.90;;;;;;5132917;28;20080;-65
2024/01/30 10:02:23;;;;;;;11.32;6.53;;;11.30;99.90;;;;;;5132900;28;20389;-65
2024/01/30 10:04:50;;;;;;;11.90;5.80;;;11.30;99.90;;;;;;5133044;28;20207;-65
2024/01/30 10:07:19;;;;;;;12.18;6.25;;;11.30;99.90;;;;;;5132840;28;20038;-65
2024/01/30 10:09:45;;;;;;;14.45;6.18;;;11.30;99.90;;;;;;5132761;28;20024;-65
2024/01/30 10:12:12;;;;;;;11.82;6.38;;;11.30;99.90;;;;;;5132829;28;20024;-65
2024/01/30 10:14:41;;;;;;;11.85;5.80;;;11.40;99.90;;;;;;5132894;28;20020;-65
2024/01/30 10:17:10;;;;;;;9.77;5.90;;;11.40;99.90;;;;;;5132849;28;20028;-65
2024/01/30 10:19:40;;;;;;;11.68;6.80;;;11.50;99.90;;;;;;5132582;28;20016;-65
2024/01/30 10:22:06;;;;;;;15.55;6.97;;;11.50;99.90;;;;;;5132913;28;20036;-66
2024/01/30 10:24:33;;;;;;;12.38;6.30;;;11.50;99.90;;;;;;5132737;28;20426;-65
2024/01/30 10:26:59;;;;;;;12.07;6.35;;;11.50;99.90;;;;;;5132752;28;20034;-65
2024/01/30 10:29:25;;;;;;;11.18;6.55;;;11.60;99.90;;;;;;5131721;28;20032;-65
2024/01/30 10:32:05;;;;;;;10.55;6.07;;;11.60;99.90;;;;;;5133269;28;20043;-66
2024/01/30 10:34:31;;;;;;;12.05;6.25;;;11.70;99.90;;;;;;5135815;28;20020;-65
2024/01/30 10:37:12;;;;;;;15.30;6.72;;;11.70;99.90;;;;;;5136802;28;20024;-66
2024/01/30 10:39:39;;;;;;;12.20;5.85;;;11.70;99.90;;;;;;5136403;28;20079;-65
2024/01/30 10:42:06;;;;;;;10.48;5.88;;;11.70;99.90;;;;;;5136542;28;20020;-66
2024/01/30 10:44:44;;;;;;;10.60;5.93;;;11.80;99.90;;;;;;5136730;28;20107;-65
2024/01/30 10:47:15;;;;;;;13.55;5.97;;;11.80;99.90;;;;;;5136671;28;20039;-66
2024/01/30 10:49:46;;;;;;;11.13;5.93;;;11.90;99.90;;;;;;5136129;28;20030;-65
2024/01/30 10:52:14;;;;;;;13.32;5.57;;;11.90;99.90;;;;;;5136085;28;20083;-65
2024/01/30 10:54:42;;;;;;;13.07;6.32;;;11.90;99.90;;;;;;5136312;28;20075;-66
2024/01/30 10:57:09;;;;;;;14.25;6.53;;;12.00;99.90;;;;;;5136463;28;20023;-65
2024/01/30 10:59:35;;;;;;;10.50;6.00;;;12.00;99.90;;;;;;5136261;28;20027;-65
2024/01/30 11:02:01;;;;;;;13.02;6.40;;;12.00;99.90;;;;;;5136447;28;20024;-66
2024/01/30 11:04:27;;;;;;;10.85;6.50;;;12.10;99.90;;;;;;5135901;28;20031;-66
2024/01/30 11:06:54;;;;;;;11.68;6.22;;;12.20;99.90;;;;;;5136158;28;20032;-66
2024/01/30 11:09:19;;;;;;;10.82;5.80;;;12.20;99.90;;;;;;5136316;28;20039;-65
2024/01/30 11:12:12;;;;;;;19.00;7.40;;;12.20;99.90;;;;;;5135035;28;20031;-66
2024/01/30 11:14:40;;;;;;;13.32;6.50;;;12.30;99.90;;;;;;5135915;28;20023;-66
2024/01/30 11:17:05;;;;;;;13.82;6.53;;;12.30;99.90;;;;;;5135687;28;20016;-66
2024/01/30 11:19:32;;;;;;;15.10;6.70;;;12.30;99.90;;;;;;5134418;28;20034;-66
2024/01/30 11:21:58;;;;;;;13.20;5.85;;;12.40;99.90;;;;;;5135253;28;20030;-67
2024/01/30 11:24:24;;;;;;;11.88;5.65;;;12.40;99.90;;;;;;5135656;28;20028;-66
2024/01/30 11:26:55;;;;;;;11.50;6.65;;;12.50;99.90;;;;;;5135529;28;20016;-65
2024/01/30 11:29:28;;;;;;;12.55;6.78;;;12.50;99.90;;;;;;5135460;28;20032;-65
2024/01/30 11:31:58;;;;;;;15.60;7.10;;;12.50;99.90;;;;;;5135124;28;20108;-65
2024/01/30 11:34:24;;;;;;;11.95;5.90;;;12.60;99.90;;;;;;5135330;28;20023;-66
2024/01/30 11:37:00;;;;;;;12.70;6.80;;;12.60;99.90;;;;;;5135229;28;20019;-64
2024/01/30 11:39:26;;;;;;;12.32;6.38;;;12.60;99.90;;;;;;5135316;28;20106;-66
2024/01/30 11:41:53;;;;;;;13.60;7.22;;;12.50;99.90;;;;;;5134674;28;20051;-65
2024/01/30 11:44:22;;;;;;;13.25;6.90;;;12.50;99.90;;;;;;5133411;28;20020;-66
2024/01/30 11:46:49;;;;;;;11.77;6.38;;;12.50;99.90;;;;;;5135075;28;20020;-65
2024/01/30 11:49:15;;;;;;;12.88;6.78;;;12.50;99.90;;;;;;5134449;28;20031;-67
2024/01/30 11:51:42;;;;;;;13.75;6.97;;;12.50;99.90;;;;;;5134994;28;20027;-65
2024/01/30 11:54:08;;;;;;;14.98;7.25;;;12.60;99.90;;;;;;5135063;28;20016;-65
2024/01/30 11:56:33;;;;;;;16.10;7.20;;;12.60;99.90;;;;;;5134957;28;20030;-66
2024/01/30 11:59:00;;;;;;;11.90;6.80;;;12.60;99.90;;;;;;5134135;28;20047;-67
2024/01/30 12:01:26;;;;;;;13.63;7.45;;;12.60;99.90;;;;;;5134910;28;20015;-65
2024/01/30 12:03:52;;;;;;;21.23;9.02;;;12.70;99.90;;;;;;5133706;28;20020;-64
2024/01/30 12:06:18;;;;;;;14.75;7.53;;;12.70;99.90;;;;;;5134016;28;20024;-67
2024/01/30 12:08:59;;;;;;;12.32;7.32;;;12.70;99.90;;;;;;5134658;28;20027;-68
2024/01/30 12:11:25;;;;;;;14.73;6.80;;;12.80;99.90;;;;;;5134455;28;20024;-67
2024/01/30 12:13:53;;;;;;;14.05;6.40;;;12.80;99.90;;;;;;5134565;28;20026;-66
2024/01/30 12:16:19;;;;;;;15.05;7.82;;;12.80;99.90;;;;;;5134748;28;20042;-65
2024/01/30 12:18:44;;;;;;;12.63;6.40;;;12.80;99.90;;;;;;5134020;28;20034;-67
2024/01/30 12:21:10;;;;;;;10.70;6.70;;;12.80;99.90;;;;;;5133958;28;20039;-66
2024/01/30 12:23:36;;;;;;;12.95;6.20;;;12.80;99.90;;;;;;5134450;28;20083;-64
2024/01/30 12:26:03;;;;;;;9.25;5.57;;;12.80;99.90;;;;;;5134327;28;20039;-65
2024/01/30 12:28:29;;;;;;;13.55;7.75;;;12.80;99.90;;;;;;5134301;28;20070;-65
2024/01/30 12:31:04;;;;;;;11.70;7.30;;;12.70;99.90;;;;;;5133952;28;20043;-67
2024/01/30 12:33:30;;;;;;;10.63;6.00;;;12.80;99.90;;;;;;5134162;28;20027;-66
2024/01/30 12:36:02;;;;;;;11.90;5.75;;;12.80;99.90;;;;;;5133214;28;20023;-65
2024/01/30 12:38:28;;;;;;;11.05;5.78;;;12.80;99.90;;;;;;5133971;28;20056;-67